createdAt,value
2018-12-17T00:01:52.551Z,13.20
2018-12-17T00:04:18.972Z,13.23
2018-12-17T00:06:45.437Z,12.63
2018-12-17T00:09:11.900Z,13.50
2018-12-17T00:11:38.806Z,14.50
2018-12-17T00:14:05.610Z,13.20
2018-12-17T00:16:32.453Z,14.23
2018-12-17T00:18:58.917Z,13.13
2018-12-17T00:21:25.364Z,14.70
2018-12-17T00:23:51.774Z,13.27
2018-12-17T00:26:18.167Z,13.97
2018-12-17T00:28:44.944Z,14.10
2018-12-17T00:31:11.414Z,12.97
2018-12-17T00:33:38.332Z,14.43
2018-12-17T00:36:04.794Z,12.57
2018-12-17T00:38:31.235Z,13.30
2018-12-17T00:40:57.673Z,13.00
2018-12-17T00:43:24.250Z,13.50
2018-12-17T00:45:51.138Z,13.30
2018-12-17T00:48:17.681Z,12.90
2018-12-17T00:50:44.145Z,14.40
2018-12-17T00:53:10.557Z,13.43
2018-12-17T00:55:37.125Z,12.57
2018-12-17T00:58:03.682Z,13.97
2018-12-17T01:00:30.157Z,14.17
2018-12-17T01:02:56.934Z,12.97
2018-12-17T01:05:23.418Z,13.40
2018-12-17T01:07:49.841Z,12.00
2018-12-17T01:10:16.325Z,12.93
2018-12-17T01:12:42.775Z,12.43
2018-12-17T01:15:09.280Z,12.90
2018-12-17T01:17:36.137Z,11.93
2018-12-17T01:20:04.771Z,13.10
2018-12-17T01:22:31.216Z,12.63
2018-12-17T01:24:57.670Z,11.83
2018-12-17T01:27:24.032Z,11.90
2018-12-17T01:29:50.481Z,12.40
2018-12-17T01:32:16.971Z,11.83
2018-12-17T01:34:43.498Z,12.37
2018-12-17T01:37:09.894Z,12.77
2018-12-17T01:39:36.315Z,12.40
2018-12-17T01:42:02.839Z,12.03
2018-12-17T01:44:29.301Z,12.53
2018-12-17T01:46:56.142Z,12.80
2018-12-17T01:49:22.601Z,12.43
2018-12-17T01:51:49.171Z,12.77
2018-12-17T01:54:15.612Z,12.67
2018-12-17T01:56:42.443Z,12.03
2018-12-17T01:59:10.862Z,12.27
2018-12-17T02:01:37.373Z,12.30
2018-12-17T02:04:03.839Z,11.50
2018-12-17T02:06:30.246Z,12.43
2018-12-17T02:08:56.710Z,12.53
2018-12-17T02:11:23.479Z,11.50
2018-12-17T02:13:51.063Z,10.50
2018-12-17T02:16:17.437Z,12.00
2018-12-17T02:18:44.264Z,12.43
2018-12-17T02:21:10.789Z,12.37
2018-12-17T02:23:37.256Z,13.47
2018-12-17T02:26:04.169Z,12.97
2018-12-17T02:28:36.161Z,13.67
2018-12-17T02:30:59.066Z,13.27
2018-12-17T02:33:26.030Z,12.47
2018-12-17T02:35:52.489Z,12.47
2018-12-17T02:38:19.050Z,13.43
2018-12-17T02:40:45.547Z,11.90
2018-12-17T02:43:11.958Z,11.97
2018-12-17T02:45:38.372Z,12.63
2018-12-17T02:48:05.183Z,11.93
2018-12-17T02:50:31.994Z,11.87
2018-12-17T02:52:58.468Z,11.63
2018-12-17T02:55:25.940Z,11.70
2018-12-17T02:57:52.522Z,11.43
2018-12-17T03:00:18.858Z,11.57
2018-12-17T03:02:45.380Z,10.87
2018-12-17T03:05:12.071Z,11.27
2018-12-17T03:07:38.514Z,10.03
2018-12-17T03:10:05.272Z,10.43
2018-12-17T03:12:32.093Z,10.70
2018-12-17T03:14:58.533Z,11.07
2018-12-17T03:17:25.136Z,9.73
2018-12-17T03:19:51.970Z,10.83
2018-12-17T03:22:18.427Z,10.20
2018-12-17T03:24:44.961Z,9.43
2018-12-17T03:27:11.514Z,10.07
2018-12-17T03:29:38.317Z,10.20
2018-12-17T03:32:05.104Z,9.40
2018-12-17T03:34:31.614Z,9.03
2018-12-17T03:36:58.043Z,10.80
2018-12-17T03:39:24.859Z,8.83
2018-12-17T03:41:51.399Z,8.80
2018-12-17T03:44:18.001Z,8.63
2018-12-17T03:46:44.443Z,9.23
2018-12-17T03:49:10.998Z,9.73
2018-12-17T03:51:37.490Z,9.37
2018-12-17T03:54:04.038Z,8.93
2018-12-17T03:56:30.519Z,8.03
2018-12-17T03:58:59.399Z,8.03
2018-12-17T04:01:26.148Z,8.10
2018-12-17T04:03:52.612Z,7.47
2018-12-17T04:06:19.041Z,7.63
2018-12-17T04:08:45.514Z,8.07
2018-12-17T04:11:11.971Z,7.20
2018-12-17T04:13:38.869Z,7.23
2018-12-17T04:16:05.466Z,7.40
2018-12-17T04:18:32.231Z,6.83
2018-12-17T04:20:59.014Z,7.97
2018-12-17T04:23:25.434Z,6.50
2018-12-17T04:25:51.944Z,6.00
2018-12-17T04:28:18.377Z,5.97
2018-12-17T04:30:45.161Z,6.37
2018-12-17T04:33:11.977Z,6.50
2018-12-17T04:35:38.455Z,6.20
2018-12-17T04:38:05.232Z,7.03
2018-12-17T04:40:31.726Z,6.57
2018-12-17T04:42:58.328Z,6.30
2018-12-17T04:45:24.788Z,6.07
2018-12-17T04:47:51.619Z,6.03
2018-12-17T04:50:18.285Z,5.97
2018-12-17T04:52:45.251Z,6.90
2018-12-17T04:55:11.762Z,6.00
2018-12-17T04:57:38.477Z,5.90
2018-12-17T05:00:06.539Z,6.07
2018-12-17T05:02:33.861Z,6.47
2018-12-17T05:05:00.921Z,6.33
2018-12-17T05:07:28.045Z,5.50
2018-12-17T05:09:55.501Z,6.07
2018-12-17T05:12:21.974Z,5.27
2018-12-17T05:14:48.788Z,5.97
2018-12-17T05:17:15.270Z,6.43
2018-12-17T05:19:41.769Z,6.23
2018-12-17T05:22:08.234Z,6.13
2018-12-17T05:24:34.654Z,7.33
2018-12-17T05:27:01.541Z,6.60
2018-12-17T05:29:27.983Z,7.43
2018-12-17T05:31:54.443Z,6.43
2018-12-17T05:34:20.882Z,7.10
2018-12-17T05:36:47.318Z,6.73
2018-12-17T05:39:13.740Z,7.20
2018-12-17T05:41:40.187Z,7.07
2018-12-17T05:44:06.647Z,6.77
2018-12-17T05:46:33.111Z,7.27
2018-12-17T05:48:59.795Z,7.30
2018-12-17T05:51:26.603Z,7.50
2018-12-17T05:53:53.088Z,7.40
2018-12-17T05:56:19.930Z,7.47
2018-12-17T05:58:46.504Z,7.67
2018-12-17T06:01:13.059Z,7.53
2018-12-17T06:03:39.902Z,7.67
2018-12-17T06:06:06.431Z,7.97
2018-12-17T06:08:33.219Z,7.97
2018-12-17T06:10:59.718Z,7.90
2018-12-17T06:13:26.234Z,8.07
2018-12-17T06:15:52.718Z,8.33
2018-12-17T06:18:19.527Z,7.73
2018-12-17T06:20:46.692Z,7.93
2018-12-17T06:23:13.596Z,8.27
2018-12-17T06:25:40.086Z,7.47
2018-12-17T06:28:06.751Z,8.60
2018-12-17T06:30:33.505Z,8.20
2018-12-17T06:32:59.925Z,8.67
2018-12-17T06:35:26.573Z,8.50
2018-12-17T06:37:53.036Z,8.57
2018-12-17T06:40:19.441Z,8.33
2018-12-17T06:42:45.878Z,8.40
2018-12-17T06:45:12.413Z,9.00
2018-12-17T06:47:38.902Z,8.30
2018-12-17T06:50:05.502Z,9.03
2018-12-17T06:52:32.017Z,8.70
2018-12-17T06:54:58.416Z,8.40
2018-12-17T06:57:24.840Z,9.07
2018-12-17T06:59:51.300Z,9.30
2018-12-17T07:02:17.938Z,10.00
2018-12-17T07:04:44.429Z,9.27
2018-12-17T07:07:10.978Z,9.20
2018-12-17T07:09:37.717Z,10.47
2018-12-17T07:12:04.637Z,10.07
2018-12-17T07:14:36.451Z,10.13
2018-12-17T07:17:00.622Z,11.00
2018-12-17T07:19:30.447Z,10.60
2018-12-17T07:21:57.558Z,11.13
2018-12-17T07:24:24.408Z,11.37
2018-12-17T07:26:51.493Z,10.47
2018-12-17T07:29:18.850Z,11.53
2018-12-17T07:31:45.839Z,11.03
2018-12-17T07:34:13.084Z,11.10
2018-12-17T07:36:40.382Z,11.27
2018-12-17T07:39:09.074Z,11.43
2018-12-17T07:41:36.375Z,11.40
2018-12-17T07:44:03.748Z,12.37
2018-12-17T07:46:31.047Z,11.53
2018-12-17T07:48:57.881Z,12.40
2018-12-17T07:51:24.371Z,12.03
2018-12-17T07:53:50.847Z,11.83
2018-12-17T07:56:18.631Z,12.37
2018-12-17T07:58:45.560Z,12.30
2018-12-17T08:01:12.761Z,13.27
2018-12-17T08:03:39.261Z,12.43
2018-12-17T08:06:05.742Z,13.10
2018-12-17T08:08:35.305Z,13.50
2018-12-17T08:11:00.767Z,13.37
2018-12-17T08:13:27.516Z,14.20
2018-12-17T08:15:55.199Z,12.60
2018-12-17T08:18:22.769Z,13.03
2018-12-17T08:20:49.975Z,12.27
2018-12-17T08:23:16.558Z,11.70
2018-12-17T08:25:44.270Z,12.10
2018-12-17T08:28:10.741Z,13.33
2018-12-17T08:30:37.528Z,13.13
2018-12-17T08:33:04.446Z,13.20
2018-12-17T08:35:30.960Z,13.27
2018-12-17T08:37:57.491Z,12.40
2018-12-17T08:40:23.982Z,12.93
2018-12-17T08:42:50.384Z,12.63
2018-12-17T08:45:18.748Z,14.37
2018-12-17T08:47:45.594Z,12.63
2018-12-17T08:50:12.167Z,12.83
2018-12-17T08:52:38.721Z,13.97
2018-12-17T08:55:05.418Z,13.23
2018-12-17T08:57:37.806Z,13.00
2018-12-17T09:00:00.382Z,12.80
2018-12-17T09:02:27.675Z,12.27
2018-12-17T09:04:54.523Z,12.47
2018-12-17T09:07:20.979Z,12.27
2018-12-17T09:09:47.833Z,13.03
2018-12-17T09:12:14.285Z,12.43
2018-12-17T09:14:40.948Z,12.13
2018-12-17T09:17:07.767Z,13.20
2018-12-17T09:19:34.189Z,12.90
2018-12-17T09:22:00.758Z,11.83
2018-12-17T09:24:27.308Z,11.03
2018-12-17T09:26:54.021Z,11.50
2018-12-17T09:29:20.587Z,11.17
2018-12-17T09:31:47.203Z,11.50
2018-12-17T09:34:13.804Z,11.50
2018-12-17T09:36:40.341Z,12.07
2018-12-17T09:39:07.399Z,11.73
2018-12-17T09:41:33.938Z,10.83
2018-12-17T09:44:00.843Z,10.10
2018-12-17T09:46:27.431Z,10.23
2018-12-17T09:48:54.382Z,11.73
2018-12-17T09:51:20.968Z,10.40
2018-12-17T09:53:47.427Z,10.20
2018-12-17T09:56:14.272Z,10.07
2018-12-17T09:58:41.139Z,9.67
2018-12-17T10:01:07.642Z,9.87
2018-12-17T10:03:34.156Z,10.30
2018-12-17T10:06:00.631Z,10.43
2018-12-17T10:08:27.257Z,10.83
2018-12-17T10:10:53.802Z,10.77
2018-12-17T10:13:20.320Z,10.10
2018-12-17T10:15:46.754Z,10.87
2018-12-17T10:18:13.199Z,11.03
2018-12-17T10:20:39.642Z,11.20
2018-12-17T10:23:06.253Z,11.33
2018-12-17T10:25:32.704Z,11.73
2018-12-17T10:27:59.148Z,12.23
2018-12-17T10:30:32.291Z,12.33
2018-12-17T10:32:54.498Z,11.20
2018-12-17T10:35:20.943Z,11.30
2018-12-17T10:37:47.437Z,11.73
2018-12-17T10:40:13.935Z,11.87
2018-12-17T10:42:40.440Z,11.07
2018-12-17T10:45:07.107Z,12.00
2018-12-17T10:47:34.327Z,12.03
2018-12-17T10:50:01.016Z,13.53
2018-12-17T10:52:27.483Z,12.93
2018-12-17T10:54:54.038Z,13.13
2018-12-17T10:57:20.838Z,13.73
2018-12-17T10:59:47.289Z,14.27
2018-12-17T11:02:16.716Z,14.50
2018-12-17T11:04:49.661Z,14.00
2018-12-17T11:07:16.066Z,13.87
2018-12-17T11:09:42.487Z,14.67
2018-12-17T11:12:08.999Z,14.17
2018-12-17T11:14:35.824Z,14.77
2018-12-17T11:17:02.265Z,15.00
2018-12-17T11:19:28.870Z,14.33
2018-12-17T11:21:55.522Z,13.50
2018-12-17T11:24:22.425Z,14.23
2018-12-17T11:26:49.214Z,14.07
2018-12-17T11:29:15.665Z,13.60
2018-12-17T11:31:42.345Z,14.47
2018-12-17T11:34:08.922Z,13.47
2018-12-17T11:36:35.449Z,14.37
2018-12-17T11:39:02.068Z,14.20
2018-12-17T11:41:28.473Z,13.53
2018-12-17T11:43:55.058Z,14.87
2018-12-17T11:46:21.555Z,13.80
2018-12-17T11:48:48.233Z,13.93
2018-12-17T11:51:14.822Z,14.03
2018-12-17T11:53:42.406Z,13.97
2018-12-17T11:56:08.831Z,14.73
2018-12-17T11:58:35.718Z,14.37
2018-12-17T12:01:02.805Z,13.80
2018-12-17T12:03:30.320Z,12.13
2018-12-17T12:05:56.854Z,12.90
2018-12-17T12:08:23.376Z,13.73
2018-12-17T12:10:49.783Z,12.53
2018-12-17T12:13:16.202Z,12.87
2018-12-17T12:15:42.732Z,12.37
2018-12-17T12:18:09.228Z,11.40
2018-12-17T12:20:35.986Z,12.07
2018-12-17T12:23:02.542Z,12.40
2018-12-17T12:25:29.061Z,12.23
2018-12-17T12:27:55.750Z,11.13
2018-12-17T12:30:22.303Z,11.80
2018-12-17T12:32:48.737Z,11.90
2018-12-17T12:35:15.217Z,11.83
2018-12-17T12:37:41.603Z,12.67
2018-12-17T12:40:08.396Z,11.27
2018-12-17T12:42:35.259Z,13.37
2018-12-17T12:45:01.852Z,12.07
2018-12-17T12:47:28.678Z,12.23
2018-12-17T12:49:55.528Z,10.67
2018-12-17T12:52:22.131Z,11.37
2018-12-17T12:54:48.689Z,12.83
2018-12-17T12:57:15.220Z,11.87
2018-12-17T13:02:42.316Z,11.47
2018-12-17T13:05:26.007Z,11.00
2018-12-17T13:07:52.458Z,11.57
2018-12-17T13:10:19.348Z,10.47
2018-12-17T13:12:46.050Z,11.13
2018-12-17T13:15:12.667Z,10.50
2018-12-17T13:17:39.133Z,10.67
2018-12-17T13:20:05.743Z,10.20
2018-12-17T13:22:32.279Z,11.27
2018-12-17T13:24:58.912Z,10.57
2018-12-17T13:27:25.385Z,12.00
2018-12-17T13:29:51.890Z,10.27
2018-12-17T13:32:18.475Z,9.40
2018-12-17T13:34:45.123Z,9.50
2018-12-17T13:37:11.580Z,9.33
2018-12-17T13:39:39.090Z,11.20
2018-12-17T13:42:05.470Z,10.37
2018-12-17T13:44:31.941Z,10.00
2018-12-17T13:46:59.481Z,11.33
2018-12-17T13:49:27.712Z,11.57
2018-12-17T13:52:00.293Z,11.37
2018-12-17T13:54:26.821Z,10.50
2018-12-17T13:56:53.266Z,10.73
2018-12-17T13:59:20.018Z,11.40
2018-12-17T14:01:51.432Z,10.97
2018-12-17T14:04:15.541Z,11.47
2018-12-17T14:06:42.278Z,10.33
2018-12-17T14:09:08.796Z,11.30
2018-12-17T14:11:35.191Z,10.83
2018-12-17T14:14:01.705Z,12.40
2018-12-17T14:16:34.745Z,10.83
2018-12-17T14:19:07.124Z,10.80
2018-12-17T14:21:40.031Z,10.73
2018-12-17T14:24:06.502Z,10.30
2018-12-17T14:26:32.924Z,10.23
2018-12-17T14:28:59.391Z,11.40
2018-12-17T14:31:28.930Z,9.73
2018-12-17T14:33:54.293Z,10.27
2018-12-17T14:36:20.781Z,10.67
2018-12-17T14:38:47.757Z,10.80
2018-12-17T14:41:14.598Z,11.27
2018-12-17T14:43:41.409Z,10.60
2018-12-17T14:46:07.989Z,10.90
2018-12-17T14:48:34.425Z,10.87
2018-12-17T14:51:00.989Z,10.23
2018-12-17T14:53:27.525Z,10.90
2018-12-17T14:55:54.065Z,10.23
2018-12-17T14:58:20.590Z,9.83
2018-12-17T15:00:47.092Z,12.27
2018-12-17T15:03:13.609Z,10.33
2018-12-17T15:05:40.043Z,10.97
2018-12-17T15:08:06.705Z,10.40
2018-12-17T15:10:33.191Z,10.40
2018-12-17T15:13:00.098Z,9.73
2018-12-17T15:15:27.536Z,9.93
2018-12-17T15:17:54.014Z,10.13
2018-12-17T15:20:20.648Z,9.60
2018-12-17T15:22:47.154Z,8.87
2018-12-17T15:25:14.019Z,8.83
2018-12-17T15:27:40.594Z,10.10
2018-12-17T15:30:07.411Z,9.40
2018-12-17T15:32:34.008Z,8.87
2018-12-17T15:35:01.040Z,9.37
2018-12-17T15:37:28.121Z,10.00
2018-12-17T15:39:54.638Z,9.83
2018-12-17T15:42:24.389Z,9.13
2018-12-17T15:44:51.190Z,8.07
2018-12-17T15:47:17.625Z,9.67
2018-12-17T15:49:44.105Z,8.73
2018-12-17T15:52:11.008Z,9.23
2018-12-17T15:54:38.729Z,8.83
2018-12-17T15:57:05.236Z,9.43
2018-12-17T15:59:33.284Z,8.90
2018-12-17T16:01:59.956Z,10.07
2018-12-17T16:04:26.698Z,9.70
2018-12-17T16:06:53.169Z,9.60
2018-12-17T16:09:20.081Z,9.37
2018-12-17T16:11:46.939Z,9.13
2018-12-17T16:14:13.765Z,9.30
2018-12-17T16:16:40.203Z,9.43
2018-12-17T16:19:07.510Z,9.70
2018-12-17T16:21:34.154Z,10.27
2018-12-17T16:24:00.613Z,10.40
2018-12-17T16:26:27.429Z,10.30
2018-12-17T16:28:53.857Z,10.70
2018-12-17T16:31:20.341Z,11.00
2018-12-17T16:33:46.856Z,11.23
2018-12-17T16:36:13.868Z,10.17
2018-12-17T16:38:42.219Z,10.90
2018-12-17T16:41:09.020Z,10.37
2018-12-17T16:43:35.795Z,10.73
2018-12-17T16:46:03.680Z,11.73
2018-12-17T16:48:30.854Z,11.73
2018-12-17T16:50:57.447Z,12.00
2018-12-17T16:53:24.716Z,11.30
2018-12-17T16:55:51.681Z,12.40
2018-12-17T16:58:18.434Z,12.17
2018-12-17T17:00:45.014Z,12.87
2018-12-17T17:03:11.553Z,11.93
2018-12-17T17:05:38.437Z,12.77
2018-12-17T17:08:05.286Z,13.23
2018-12-17T17:10:31.750Z,12.60
2018-12-17T17:13:00.107Z,12.60
2018-12-17T17:15:26.546Z,12.00
2018-12-17T17:17:52.941Z,12.50
2018-12-17T17:20:19.391Z,12.87
2018-12-17T17:22:46.189Z,12.40
2018-12-17T17:25:12.780Z,12.40
2018-12-17T17:27:39.567Z,12.63
2018-12-17T17:30:06.606Z,13.17
2018-12-17T17:32:33.122Z,14.97
2018-12-17T17:34:59.592Z,13.50
2018-12-17T17:37:26.222Z,15.43
2018-12-17T17:39:52.713Z,13.40
2018-12-17T17:42:19.167Z,14.57
2018-12-17T17:44:46.015Z,14.70
2018-12-17T17:47:12.541Z,14.67
2018-12-17T17:49:38.954Z,14.47
2018-12-17T17:52:05.849Z,14.13
2018-12-17T17:54:32.294Z,15.17
2018-12-17T17:56:58.768Z,15.70
2018-12-17T17:59:25.177Z,16.67
2018-12-17T18:01:52.572Z,15.80
2018-12-17T18:04:19.056Z,16.50
2018-12-17T18:06:45.938Z,16.70
2018-12-17T18:09:12.498Z,17.17
2018-12-17T18:11:38.993Z,18.33
2018-12-17T18:14:05.464Z,17.03
2018-12-17T18:16:31.993Z,17.37
2018-12-17T18:18:58.803Z,16.57
2018-12-17T18:21:25.277Z,16.83
2018-12-17T18:23:52.235Z,16.67
2018-12-17T18:26:18.731Z,16.63
2018-12-17T18:28:46.180Z,16.87
2018-12-17T18:31:12.814Z,16.60
2018-12-17T18:33:39.259Z,16.73
2018-12-17T18:36:05.912Z,18.03
2018-12-17T18:38:35.941Z,17.07
2018-12-17T18:41:03.208Z,16.60
2018-12-17T18:43:30.126Z,17.70
2018-12-17T18:45:57.082Z,17.77
2018-12-17T18:48:23.722Z,17.63
2018-12-17T18:50:51.184Z,19.80
2018-12-17T18:53:17.677Z,19.50
2018-12-17T18:55:44.168Z,19.17
2018-12-17T18:58:10.646Z,20.77
2018-12-17T19:00:37.172Z,20.07
2018-12-17T19:03:03.618Z,19.30
2018-12-17T19:05:30.050Z,20.57
2018-12-17T19:07:56.676Z,19.80
2018-12-17T19:10:25.485Z,20.03
2018-12-17T19:12:51.980Z,20.50
2018-12-17T19:15:18.440Z,20.13
2018-12-17T19:17:44.931Z,19.00
2018-12-17T19:20:11.904Z,19.67
2018-12-17T19:22:38.693Z,20.27
2018-12-17T19:25:05.488Z,20.67
2018-12-17T19:27:32.064Z,19.20
2018-12-17T19:29:58.494Z,19.80
2018-12-17T19:32:24.915Z,18.87
2018-12-17T19:34:51.334Z,19.00
2018-12-17T19:37:17.776Z,18.70
2018-12-17T19:39:44.196Z,18.07
2018-12-17T19:42:10.662Z,20.17
2018-12-17T19:44:37.122Z,17.93
2018-12-17T19:47:03.616Z,17.33
2018-12-17T19:49:30.137Z,19.33
2018-12-17T19:51:56.655Z,18.87
2018-12-17T19:54:24.649Z,18.37
2018-12-17T19:56:51.400Z,18.43
2018-12-17T19:59:17.905Z,18.63
2018-12-17T20:01:44.342Z,19.00
2018-12-17T20:04:10.907Z,19.70
2018-12-17T20:06:37.237Z,18.47
2018-12-17T20:09:04.146Z,18.63
2018-12-17T20:11:30.676Z,18.60
2018-12-17T20:13:57.024Z,20.13
2018-12-17T20:16:24.575Z,18.83
2018-12-17T20:18:51.285Z,17.83
2018-12-17T20:21:19.213Z,18.67
2018-12-17T20:23:45.598Z,19.27
2018-12-17T20:26:12.027Z,17.67
2018-12-17T20:28:38.665Z,18.73
2018-12-17T20:31:05.083Z,19.07
2018-12-17T20:33:31.518Z,18.30
2018-12-17T20:35:57.904Z,18.27
2018-12-17T20:38:24.282Z,18.57
2018-12-17T20:40:51.004Z,19.83
2018-12-17T20:43:17.459Z,19.87
2018-12-17T20:45:43.762Z,19.57
2018-12-17T20:48:11.283Z,17.83
2018-12-17T20:50:37.698Z,18.00
2018-12-17T20:53:04.220Z,17.23
2018-12-17T20:55:30.928Z,18.63
2018-12-17T20:57:58.906Z,17.17
2018-12-17T21:00:25.618Z,18.77
2018-12-17T21:03:00.075Z,18.07
2018-12-17T21:05:23.026Z,17.57
2018-12-17T21:07:50.031Z,16.83
2018-12-17T21:10:16.366Z,15.63
2018-12-17T21:12:42.882Z,16.60
2018-12-17T21:15:09.367Z,16.67
2018-12-17T21:17:38.883Z,16.77
2018-12-17T21:20:06.859Z,15.33
2018-12-17T21:22:33.366Z,14.77
2018-12-17T21:25:00.195Z,16.30
2018-12-17T21:27:26.646Z,14.93
2018-12-17T21:29:53.119Z,15.47
2018-12-17T21:32:19.653Z,16.63
2018-12-17T21:34:46.303Z,15.90
2018-12-17T21:37:12.718Z,16.03
2018-12-17T21:39:39.146Z,16.27
2018-12-17T21:42:05.937Z,14.63
2018-12-17T21:44:32.415Z,15.23
2018-12-17T21:46:59.213Z,16.87
2018-12-17T21:49:25.664Z,15.60
2018-12-17T21:51:52.301Z,15.70
2018-12-17T21:54:18.796Z,16.57
2018-12-17T21:56:45.342Z,16.17
2018-12-17T21:59:11.810Z,14.90
2018-12-17T22:01:40.288Z,16.90
2018-12-17T22:04:07.006Z,14.83
2018-12-17T22:06:33.502Z,15.97
2018-12-17T22:08:59.999Z,16.00
2018-12-17T22:11:26.485Z,17.87
2018-12-17T22:13:52.933Z,16.27
2018-12-17T22:16:19.468Z,16.83
2018-12-17T22:18:46.421Z,16.80
2018-12-17T22:21:13.254Z,15.70
2018-12-17T22:23:39.754Z,16.47
2018-12-17T22:26:07.547Z,16.87
2018-12-17T22:28:34.260Z,16.83
2018-12-17T22:31:01.330Z,16.27
2018-12-17T22:33:27.828Z,16.20
2018-12-17T22:35:54.244Z,15.40
2018-12-17T22:38:21.075Z,15.40
2018-12-17T22:40:47.566Z,14.67
2018-12-17T22:43:14.019Z,15.33
2018-12-17T22:45:41.213Z,14.23
2018-12-17T22:48:08.708Z,13.73
2018-12-17T22:50:35.341Z,13.63
2018-12-17T22:53:02.692Z,14.17
2018-12-17T22:55:29.274Z,14.43
2018-12-17T22:57:56.272Z,14.73
2018-12-17T23:00:23.087Z,13.17
2018-12-17T23:02:49.903Z,14.33
2018-12-17T23:05:16.792Z,13.00
2018-12-17T23:07:43.295Z,13.53
2018-12-17T23:10:22.997Z,13.63
2018-12-17T23:13:01.801Z,14.43
2018-12-17T23:15:40.534Z,12.47
2018-12-17T23:18:06.771Z,13.40
2018-12-17T23:20:33.232Z,13.70
2018-12-17T23:23:00.070Z,13.13
2018-12-17T23:25:26.561Z,12.83
2018-12-17T23:27:53.128Z,12.10
2018-12-17T23:30:20.426Z,12.77
2018-12-17T23:32:46.849Z,12.03
2018-12-17T23:35:13.351Z,13.77
2018-12-17T23:37:39.817Z,12.90
2018-12-17T23:40:06.801Z,13.70
2018-12-17T23:42:33.787Z,12.77
2018-12-17T23:45:00.678Z,12.77
2018-12-17T23:47:27.577Z,12.87
2018-12-17T23:49:54.110Z,12.50
2018-12-17T23:52:20.744Z,13.57
2018-12-17T23:54:47.629Z,12.87
2018-12-17T23:57:14.100Z,12.07
2018-12-17T23:59:40.538Z,13.80
